Terminal Aerodrome Forecast
Issued by NWS

Home | Current Version | Previous Version | Text Only | Print | Product List | Glossary On
Versions: 1 2 3 4 5 6 7 8 9 10 11 12 13 14 15 16 17
000
FTUS44 KTSA 051006 AAA
TAFFYV
TAF AMD
KFYV 051006Z 0510/0606 16003KT P6SM FEW250
      TEMPO 0510/0514 4SM BR
     FM051500 16005KT P6SM SCT050
     FM060100 13003KT P6SM BKN250=

USA.gov is the U.S. government's official web portal to all federal, state and local government web resources and services.